Time;durP1;ratioP1;P1;durP2;ratioP2;P2;SDS_P1;SDS_P2;PMS_P1;PMS_P2;Temp;Humidity;BMP_temperature;BMP_pressure;BME280_temperature;BME280_humidity;BME280_pressure;Samples;Min_cycle;Max_cycle;Signal;HPM_P1;HPM_P2
2023/05/30 00:01:19;;;;;;;1.85;1.17;;;12.70;99.90;;;;;;5114853;28;20114;-72
2023/05/30 00:03:46;;;;;;;0.50;0.50;;;12.60;99.90;;;;;;5115115;28;20426;-71
2023/05/30 00:06:13;;;;;;;0.60;0.60;;;12.50;99.90;;;;;;5107424;28;20107;-71
2023/05/30 00:08:39;;;;;;;1.27;1.08;;;12.50;99.90;;;;;;5117935;27;20011;-71
2023/05/30 00:11:06;;;;;;;4.85;4.22;;;12.60;99.90;;;;;;5106917;27;20459;-72
2023/05/30 00:13:32;;;;;;;0.32;0.32;;;12.60;99.90;;;;;;5130087;27;20035;-71
2023/05/30 00:15:59;;;;;;;5.95;1.17;;;12.50;99.90;;;;;;5126242;27;20035;-72
2023/05/30 00:18:25;;;;;;;0.28;0.28;;;12.50;99.90;;;;;;5135143;27;20031;-72
2023/05/30 00:20:52;;;;;;;3.40;0.40;;;12.40;99.90;;;;;;5135252;27;20084;-72
2023/05/30 00:23:18;;;;;;;0.10;0.10;;;12.20;99.90;;;;;;5120124;27;20034;-71
2023/05/30 00:25:48;;;;;;;1.00;0.60;;;12.10;99.90;;;;;;5116913;27;20114;-71
2023/05/30 00:28:14;;;;;;;0.20;0.20;;;12.20;99.90;;;;;;5134796;27;20034;-72
2023/05/30 00:30:41;;;;;;;0.82;0.57;;;12.40;99.90;;;;;;5116464;27;20122;-72
2023/05/30 00:33:06;;;;;;;1.58;1.08;;;12.40;99.90;;;;;;5112740;27;20032;-72
2023/05/30 00:35:32;;;;;;;0.30;0.30;;;12.30;99.90;;;;;;5113783;28;20054;-72
2023/05/30 00:37:58;;;;;;;2.15;0.93;;;12.30;99.90;;;;;;5095559;28;20077;-72
2023/05/30 00:40:23;;;;;;;1.38;0.75;;;12.20;99.90;;;;;;5095971;28;20110;-71
2023/05/30 00:42:50;;;;;;;0.25;0.20;;;12.20;99.90;;;;;;5095586;28;20420;-72
2023/05/30 00:45:15;;;;;;;5.07;0.90;;;12.20;99.90;;;;;;5096057;28;20034;-71
2023/05/30 00:47:42;;;;;;;0.85;0.80;;;12.10;99.90;;;;;;5095443;28;20475;-72
2023/05/30 00:50:08;;;;;;;0.75;0.73;;;12.10;99.90;;;;;;5114283;28;20023;-72
2023/05/30 00:52:34;;;;;;;0.10;0.10;;;12.00;99.90;;;;;;5114785;28;20084;-72
2023/05/30 00:55:02;;;;;;;0.20;0.20;;;12.00;99.90;;;;;;5114022;28;20023;-72
2023/05/30 00:57:29;;;;;;;0.10;0.10;;;12.10;99.90;;;;;;5095562;28;20039;-71
2023/05/30 00:59:56;;;;;;;0.10;0.10;;;12.20;99.90;;;;;;5095651;28;20373;-72
2023/05/30 01:02:23;;;;;;;0.20;0.20;;;12.20;99.90;;;;;;5112932;28;20059;-71
2023/05/30 01:04:50;;;;;;;0.20;0.20;;;12.30;99.90;;;;;;5113708;28;20048;-72
2023/05/30 01:07:16;;;;;;;0.95;0.88;;;12.20;99.90;;;;;;5095383;28;20380;-72
2023/05/30 01:09:42;;;;;;;3.50;1.67;;;12.10;99.90;;;;;;5113841;28;20094;-72
2023/05/30 01:12:21;;;;;;;0.32;0.32;;;12.00;99.90;;;;;;5113859;28;20031;-72
2023/05/30 01:15:01;;;;;;;0.88;0.82;;;11.90;99.90;;;;;;5095572;28;20032;-71
2023/05/30 01:17:44;;;;;;;0.30;0.30;;;12.00;99.90;;;;;;5095124;28;20480;-72
2023/05/30 01:20:16;;;;;;;0.30;0.30;;;12.10;99.90;;;;;;5095047;28;20042;-72
2023/05/30 01:22:54;;;;;;;0.75;0.65;;;12.00;99.90;;;;;;5113310;28;20032;-72
2023/05/30 01:25:44;;;;;;;4.72;0.40;;;12.00;99.90;;;;;;5095329;28;20027;-72
2023/05/30 01:28:12;;;;;;;0.20;0.20;;;12.00;99.90;;;;;;5095092;28;20069;-72
2023/05/30 01:30:45;;;;;;;1.50;1.30;;;11.90;99.90;;;;;;5095124;28;20035;-72
2023/05/30 01:33:13;;;;;;;2.20;0.88;;;12.00;99.90;;;;;;5095307;28;20038;-72
2023/05/30 01:35:42;;;;;;;0.35;0.35;;;11.70;99.90;;;;;;5094639;28;20036;-72
2023/05/30 01:38:08;;;;;;;0.63;0.63;;;11.70;99.90;;;;;;5094973;28;20039;-72
2023/05/30 01:40:35;;;;;;;2.42;0.85;;;11.80;99.90;;;;;;5094921;28;20020;-72
2023/05/30 01:43:11;;;;;;;0.20;0.20;;;11.80;99.90;;;;;;5113043;28;20023;-72
2023/05/30 01:45:49;;;;;;;0.20;0.20;;;11.90;99.90;;;;;;5113194;28;20020;-72
2023/05/30 01:48:20;;;;;;;0.45;0.45;;;12.00;99.90;;;;;;5094766;28;20119;-71
2023/05/30 01:50:49;;;;;;;35.58;3.30;;;11.90;99.90;;;;;;5113079;28;20032;-72
2023/05/30 01:53:25;;;;;;;0.40;0.40;;;11.90;99.90;;;;;;5113207;28;20028;-72
2023/05/30 01:55:55;;;;;;;0.10;0.10;;;11.70;99.90;;;;;;5113513;28;20035;-72
2023/05/30 01:58:23;;;;;;;5.30;0.85;;;11.70;99.90;;;;;;5112820;28;20040;-72
2023/05/30 02:00:51;;;;;;;0.10;0.10;;;11.50;99.90;;;;;;5094820;28;20024;-71
2023/05/30 02:03:16;;;;;;;0.20;0.20;;;11.50;99.90;;;;;;5094400;28;20069;-72
2023/05/30 02:05:43;;;;;;;1.80;0.75;;;11.70;99.90;;;;;;5094825;28;20059;-71
2023/05/30 02:08:09;;;;;;;0.63;0.63;;;11.70;99.90;;;;;;5112894;28;20050;-72
2023/05/30 02:10:35;;;;;;;0.98;0.35;;;11.60;99.90;;;;;;5094515;28;20023;-72
2023/05/30 02:13:01;;;;;;;0.10;0.10;;;11.70;99.90;;;;;;5096709;28;20085;-72
2023/05/30 02:15:27;;;;;;;0.20;0.20;;;11.80;99.90;;;;;;5098693;28;20016;-72
2023/05/30 02:17:53;;;;;;;0.10;0.10;;;11.70;99.90;;;;;;5098379;28;20479;-72
2023/05/30 02:20:19;;;;;;;0.52;0.52;;;11.60;99.90;;;;;;5116904;28;20030;-72
2023/05/30 02:22:45;;;;;;;0.20;0.20;;;11.30;99.90;;;;;;5098542;28;20028;-72
2023/05/30 02:25:11;;;;;;;0.50;0.50;;;11.40;99.90;;;;;;5098554;28;20019;-72
2023/05/30 02:27:37;;;;;;;0.17;0.17;;;11.50;99.90;;;;;;5116903;28;20055;-72
2023/05/30 02:30:03;;;;;;;0.82;0.82;;;11.60;99.90;;;;;;5098154;28;20020;-72
2023/05/30 02:32:29;;;;;;;2.67;0.28;;;11.50;99.90;;;;;;5116564;28;20387;-72
2023/05/30 02:34:54;;;;;;;7.38;1.33;;;11.40;99.90;;;;;;5098503;28;20024;-72
2023/05/30 02:37:21;;;;;;;3.22;0.95;;;11.30;99.90;;;;;;5116732;28;20032;-72
2023/05/30 02:39:47;;;;;;;0.40;0.40;;;11.30;99.90;;;;;;5098149;28;20349;-71
2023/05/30 02:42:13;;;;;;;0.20;0.20;;;11.20;99.90;;;;;;5098359;28;20031;-71
2023/05/30 02:44:39;;;;;;;0.47;0.40;;;11.30;99.90;;;;;;5097897;28;20027;-71
2023/05/30 02:47:05;;;;;;;0.77;0.77;;;11.30;99.90;;;;;;5098323;28;20107;-71
2023/05/30 02:49:31;;;;;;;0.20;0.20;;;11.30;99.90;;;;;;5098003;28;20079;-72
2023/05/30 02:51:59;;;;;;;3.22;0.47;;;11.10;99.90;;;;;;5098033;28;20048;-72
2023/05/30 02:54:31;;;;;;;0.25;0.25;;;11.10;99.90;;;;;;5098000;28;20026;-71
2023/05/30 02:57:15;;;;;;;0.65;0.65;;;11.10;99.90;;;;;;5097817;28;20023;-72
2023/05/30 03:00:01;;;;;;;0.80;0.80;;;11.20;99.90;;;;;;5116048;28;20097;-72
2023/05/30 03:02:27;;;;;;;0.57;0.57;;;11.40;99.90;;;;;;5097586;28;20020;-72
2023/05/30 03:04:52;;;;;;;0.95;0.77;;;11.40;99.90;;;;;;5097523;28;20034;-72
2023/05/30 03:07:20;;;;;;;4.78;1.50;;;11.20;99.90;;;;;;5098035;28;20448;-72
2023/05/30 03:09:47;;;;;;;6.32;0.82;;;11.10;99.90;;;;;;5097362;28;20426;-72
2023/05/30 03:12:14;;;;;;;0.20;0.20;;;11.00;99.90;;;;;;5097849;28;20114;-71
2023/05/30 03:14:40;;;;;;;1.33;1.10;;;11.10;99.90;;;;;;5097610;28;20539;-72
2023/05/30 03:17:06;;;;;;;0.40;0.30;;;11.10;99.90;;;;;;5097139;28;20031;-72
2023/05/30 03:19:32;;;;;;;3.50;0.85;;;11.00;99.90;;;;;;5097782;28;20027;-72
2023/05/30 03:22:00;;;;;;;0.90;0.65;;;11.10;99.90;;;;;;5097164;28;20031;-72
2023/05/30 03:24:29;;;;;;;0.10;0.10;;;11.00;99.90;;;;;;5096794;28;20028;-72
2023/05/30 03:26:55;;;;;;;0.17;0.17;;;11.00;99.90;;;;;;5097181;28;20016;-72
2023/05/30 03:29:22;;;;;;;4.22;1.08;;;11.00;99.90;;;;;;5097315;28;20030;-72
2023/05/30 03:31:48;;;;;;;1.45;0.90;;;10.80;99.90;;;;;;5096771;28;20398;-72
2023/05/30 03:34:14;;;;;;;4.90;1.75;;;10.90;99.90;;;;;;5097431;28;20016;-72
2023/05/30 03:36:43;;;;;;;1.20;0.50;;;10.90;99.90;;;;;;5096859;28;20028;-72
2023/05/30 03:39:09;;;;;;;0.63;0.63;;;10.90;99.90;;;;;;5096907;28;20023;-71
2023/05/30 03:41:35;;;;;;;0.17;0.17;;;10.80;99.90;;;;;;5096497;28;20411;-72
2023/05/30 03:44:01;;;;;;;30.42;1.48;;;11.00;99.90;;;;;;5096975;28;20050;-72
2023/05/30 03:46:26;;;;;;;0.20;0.20;;;11.00;99.90;;;;;;5114993;28;20024;-72
2023/05/30 03:48:52;;;;;;;23.60;1.58;;;11.00;99.90;;;;;;5098101;28;20020;-72
2023/05/30 03:51:22;;;;;;;0.20;0.20;;;10.90;99.90;;;;;;5096922;28;20100;-72
2023/05/30 03:53:47;;;;;;;1.08;1.00;;;11.00;99.90;;;;;;5115207;28;20056;-72
2023/05/30 03:56:13;;;;;;;0.10;0.10;;;11.00;99.90;;;;;;5096672;28;20035;-71
2023/05/30 03:58:39;;;;;;;0.13;0.13;;;11.00;99.90;;;;;;5115009;28;20044;-72
2023/05/30 04:01:05;;;;;;;0.90;0.90;;;11.10;99.90;;;;;;5114526;28;20039;-72
2023/05/30 04:03:31;;;;;;;2.92;1.63;;;11.00;99.90;;;;;;5115019;28;20357;-72
2023/05/30 04:05:58;;;;;;;0.45;0.45;;;11.00;99.90;;;;;;5114801;28;20100;-72
2023/05/30 04:08:25;;;;;;;0.75;0.63;;;11.10;99.90;;;;;;5096809;28;20016;-72
2023/05/30 04:10:51;;;;;;;3.83;1.20;;;11.00;99.90;;;;;;5079732;28;20487;-72
2023/05/30 04:13:17;;;;;;;0.52;0.43;;;11.00;99.90;;;;;;5096118;28;20036;-73
2023/05/30 04:15:44;;;;;;;13.77;1.70;;;11.20;99.90;;;;;;5096227;28;20046;-72
2023/05/30 04:18:10;;;;;;;0.20;0.20;;;11.00;99.90;;;;;;5096160;28;20551;-72
2023/05/30 04:20:36;;;;;;;0.50;0.38;;;11.00;99.90;;;;;;5096456;28;20016;-71
2023/05/30 04:23:02;;;;;;;0.20;0.20;;;11.10;99.90;;;;;;5096298;28;20084;-72
2023/05/30 04:25:28;;;;;;;0.20;0.20;;;11.10;99.90;;;;;;5096091;28;20015;-72
2023/05/30 04:27:54;;;;;;;0.10;0.10;;;11.20;99.90;;;;;;5095905;28;20035;-72
2023/05/30 04:30:20;;;;;;;0.20;0.20;;;11.20;99.90;;;;;;5096344;28;20048;-72
2023/05/30 04:32:48;;;;;;;0.20;0.20;;;11.30;99.90;;;;;;5096078;28;20034;-72
2023/05/30 04:35:15;;;;;;;0.10;0.10;;;11.30;99.90;;;;;;5095631;28;20028;-72
2023/05/30 04:37:44;;;;;;;2.38;1.23;;;11.30;99.90;;;;;;5078477;28;20019;-72
2023/05/30 04:40:12;;;;;;;1.35;1.25;;;11.30;99.90;;;;;;5095816;28;20034;-72
2023/05/30 04:42:40;;;;;;;0.20;0.20;;;11.40;99.90;;;;;;5095790;28;20080;-72
2023/05/30 04:45:07;;;;;;;0.32;0.32;;;11.50;99.90;;;;;;5096035;28;20081;-71
2023/05/30 04:47:33;;;;;;;0.20;0.20;;;11.50;99.90;;;;;;5113950;28;20026;-72
2023/05/30 04:50:02;;;;;;;0.30;0.30;;;11.50;99.90;;;;;;5095696;28;20106;-72
2023/05/30 04:52:28;;;;;;;0.22;0.22;;;11.50;99.90;;;;;;5079057;28;20027;-72
2023/05/30 04:54:56;;;;;;;0.52;0.52;;;11.50;99.90;;;;;;5113747;28;20062;-71
2023/05/30 04:57:21;;;;;;;0.20;0.20;;;11.60;99.90;;;;;;5095374;28;20039;-72
2023/05/30 04:59:47;;;;;;;2.47;0.77;;;11.50;99.90;;;;;;5095383;28;20023;-72
2023/05/30 05:02:13;;;;;;;0.50;0.50;;;11.60;99.90;;;;;;5113647;28;20106;-72
2023/05/30 05:04:39;;;;;;;0.88;0.52;;;11.60;99.90;;;;;;5113773;28;20016;-72
2023/05/30 05:07:05;;;;;;;0.20;0.20;;;11.60;99.90;;;;;;5113640;28;20057;-72
2023/05/30 05:09:31;;;;;;;6.38;1.05;;;11.80;99.90;;;;;;5113639;28;20028;-72
2023/05/30 05:11:57;;;;;;;0.20;0.20;;;11.80;99.90;;;;;;5113366;28;20511;-72
2023/05/30 05:14:23;;;;;;;0.20;0.20;;;11.90;99.90;;;;;;5113641;28;20028;-72
2023/05/30 05:16:49;;;;;;;5.07;0.73;;;12.20;99.90;;;;;;5113564;28;20046;-72
2023/05/30 05:19:15;;;;;;;0.20;0.20;;;12.30;99.90;;;;;;5113525;28;20028;-72
2023/05/30 05:21:41;;;;;;;1.27;1.27;;;12.20;99.90;;;;;;5113454;28;20036;-72
2023/05/30 05:24:10;;;;;;;0.35;0.35;;;12.20;99.90;;;;;;5095215;28;20024;-72
2023/05/30 05:26:35;;;;;;;2.10;1.17;;;12.20;99.90;;;;;;5095081;28;20027;-72
2023/05/30 05:29:01;;;;;;;0.45;0.45;;;12.00;99.90;;;;;;5113258;28;20027;-72
2023/05/30 05:31:27;;;;;;;0.10;0.10;;;12.20;99.90;;;;;;5113508;28;20024;-72
2023/05/30 05:33:53;;;;;;;0.20;0.20;;;12.30;99.90;;;;;;5095105;28;20490;-72
2023/05/30 05:36:20;;;;;;;0.20;0.20;;;12.10;99.90;;;;;;5102483;27;20558;-73
2023/05/30 05:38:46;;;;;;;0.10;0.10;;;12.10;99.90;;;;;;5111705;28;20039;-72
2023/05/30 05:41:12;;;;;;;0.20;0.20;;;12.30;99.90;;;;;;5111961;28;20554;-72
2023/05/30 05:43:38;;;;;;;0.20;0.20;;;12.40;99.90;;;;;;5112610;28;20107;-72
2023/05/30 05:46:04;;;;;;;0.60;0.60;;;12.60;99.90;;;;;;5112185;28;20032;-72
2023/05/30 05:48:29;;;;;;;0.13;0.13;;;12.60;99.90;;;;;;5112093;28;20104;-72
2023/05/30 05:50:55;;;;;;;0.43;0.43;;;12.50;99.90;;;;;;5112135;28;20045;-73
2023/05/30 05:53:21;;;;;;;0.30;0.30;;;12.70;99.90;;;;;;5112285;28;20038;-72
2023/05/30 05:55:47;;;;;;;6.53;1.15;;;12.70;99.90;;;;;;5112171;28;20035;-72
2023/05/30 05:58:13;;;;;;;0.65;0.52;;;12.80;99.90;;;;;;5112058;28;20177;-72
2023/05/30 06:00:39;;;;;;;0.70;0.60;;;12.90;99.90;;;;;;5112110;28;20051;-72
2023/05/30 06:03:04;;;;;;;0.47;0.47;;;13.00;99.90;;;;;;5112045;28;20024;-72
2023/05/30 06:05:30;;;;;;;1.08;0.90;;;13.10;99.90;;;;;;5111953;28;20030;-71
2023/05/30 06:07:58;;;;;;;0.20;0.20;;;13.30;99.90;;;;;;5111914;28;20476;-72
2023/05/30 06:10:27;;;;;;;6.50;0.90;;;13.30;99.90;;;;;;5111771;28;20023;-72
2023/05/30 06:12:53;;;;;;;4.57;0.82;;;13.50;99.90;;;;;;5112231;28;20448;-72
2023/05/30 06:15:19;;;;;;;0.20;0.20;;;13.50;99.90;;;;;;5085782;28;20039;-71
2023/05/30 06:17:45;;;;;;;0.20;0.20;;;13.40;99.90;;;;;;5112021;28;20460;-72
2023/05/30 06:20:11;;;;;;;1.25;0.70;;;13.70;99.90;;;;;;5111926;28;20026;-72
2023/05/30 06:22:37;;;;;;;1.42;1.02;;;13.50;99.90;;;;;;5112028;28;20411;-72
2023/05/30 06:25:04;;;;;;;0.90;0.50;;;13.70;99.90;;;;;;5111617;28;20023;-72
2023/05/30 06:27:30;;;;;;;0.10;0.10;;;13.90;99.90;;;;;;5112266;28;20103;-72
2023/05/30 06:29:56;;;;;;;0.10;0.10;;;14.00;99.90;;;;;;5104160;28;20107;-72
2023/05/30 06:32:21;;;;;;;8.93;2.25;;;14.00;99.90;;;;;;5111690;28;20076;-72
2023/05/30 06:34:47;;;;;;;0.10;0.10;;;14.10;99.90;;;;;;5111068;28;20020;-72
2023/05/30 06:37:16;;;;;;;0.20;0.20;;;14.10;99.90;;;;;;5111215;28;20492;-72
2023/05/30 06:39:42;;;;;;;0.20;0.20;;;14.30;99.90;;;;;;5111453;28;20031;-72
2023/05/30 06:42:11;;;;;;;0.10;0.10;;;14.40;99.90;;;;;;5111754;28;20038;-72
2023/05/30 06:44:43;;;;;;;0.25;0.25;;;14.30;99.90;;;;;;5093593;28;20568;-72
2023/05/30 06:47:09;;;;;;;0.20;0.20;;;14.40;99.90;;;;;;5111873;28;20024;-72
2023/05/30 06:49:35;;;;;;;1.27;1.02;;;14.50;99.90;;;;;;5111466;28;20080;-72
2023/05/30 06:52:00;;;;;;;1.25;0.70;;;14.50;99.90;;;;;;5098153;28;20033;-72
2023/05/30 06:54:27;;;;;;;0.22;0.22;;;14.40;99.90;;;;;;5095199;28;20028;-72
2023/05/30 06:56:52;;;;;;;0.40;0.40;;;14.00;99.90;;;;;;5111588;28;20024;-71
2023/05/30 06:59:19;;;;;;;1.13;0.95;;;13.90;99.90;;;;;;5113295;28;20047;-71
2023/05/30 07:01:45;;;;;;;0.20;0.20;;;13.90;99.90;;;;;;5115618;28;20022;-73
2023/05/30 07:04:11;;;;;;;0.75;0.57;;;14.30;99.90;;;;;;5101882;28;20031;-72
2023/05/30 07:06:37;;;;;;;0.10;0.10;;;14.50;99.90;;;;;;5115144;28;20090;-72
2023/05/30 07:09:02;;;;;;;0.20;0.20;;;14.90;99.90;;;;;;5115260;28;20361;-72
2023/05/30 07:11:28;;;;;;;0.10;0.10;;;15.20;99.90;;;;;;5114892;28;20023;-73
2023/05/30 07:13:54;;;;;;;0.98;0.43;;;15.40;99.90;;;;;;5115200;28;20047;-72
2023/05/30 07:16:20;;;;;;;0.73;0.73;;;15.40;99.90;;;;;;5115097;28;20053;-71
2023/05/30 07:18:46;;;;;;;1.65;1.55;;;15.20;99.90;;;;;;5100975;28;20141;-71
2023/05/30 07:21:12;;;;;;;0.20;0.20;;;15.10;99.90;;;;;;5115272;28;20110;-71
2023/05/30 07:23:37;;;;;;;3.78;0.95;;;15.00;99.90;;;;;;5115218;28;20031;-71
2023/05/30 07:26:03;;;;;;;0.75;0.75;;;14.80;99.90;;;;;;5115522;28;20018;-72
2023/05/30 07:28:29;;;;;;;0.20;0.20;;;14.70;99.90;;;;;;5100148;28;20130;-71
2023/05/30 07:30:55;;;;;;;0.10;0.10;;;14.80;99.90;;;;;;5116808;28;20023;-71
2023/05/30 07:33:21;;;;;;;0.35;0.35;;;15.20;99.90;;;;;;5116352;28;20026;-72
2023/05/30 07:35:46;;;;;;;0.30;0.28;;;15.60;99.90;;;;;;5115561;28;20058;-72
2023/05/30 07:38:12;;;;;;;0.55;0.55;;;15.70;99.90;;;;;;5116050;28;20035;-71
2023/05/30 07:40:38;;;;;;;0.20;0.20;;;15.90;99.90;;;;;;5115408;28;20532;-71
2023/05/30 07:43:03;;;;;;;0.10;0.10;;;15.90;99.90;;;;;;5116781;28;20055;-71
2023/05/30 07:45:29;;;;;;;0.20;0.20;;;16.10;99.90;;;;;;5115815;28;20038;-71
2023/05/30 07:47:55;;;;;;;0.60;0.60;;;16.40;99.90;;;;;;5115364;28;20073;-71
2023/05/30 07:50:21;;;;;;;0.22;0.22;;;16.50;99.90;;;;;;5115677;28;20019;-71
2023/05/30 07:52:47;;;;;;;0.20;0.20;;;16.60;99.90;;;;;;5115060;28;20490;-71
2023/05/30 07:55:13;;;;;;;3.83;0.63;;;16.40;99.90;;;;;;5101228;28;20464;-71
2023/05/30 07:57:38;;;;;;;0.20;0.20;;;16.60;99.90;;;;;;5114507;28;20031;-72
2023/05/30 08:00:11;;;;;;;7.93;1.73;;;16.20;99.90;;;;;;5114496;28;20380;-72
2023/05/30 08:02:40;;;;;;;0.82;0.82;;;15.80;99.90;;;;;;5114571;28;20043;-71
2023/05/30 08:05:06;;;;;;;0.38;0.38;;;15.80;99.90;;;;;;5113840;28;20031;-71
2023/05/30 08:07:32;;;;;;;0.25;0.25;;;15.90;99.90;;;;;;5113646;28;20152;-71
2023/05/30 08:09:58;;;;;;;0.17;0.17;;;16.10;99.90;;;;;;5113593;28;20134;-71
2023/05/30 08:12:28;;;;;;;0.10;0.10;;;16.30;99.90;;;;;;5102935;28;20494;-71
2023/05/30 08:14:56;;;;;;;0.40;0.40;;;16.30;99.90;;;;;;5113718;28;20031;-71
2023/05/30 08:17:25;;;;;;;0.17;0.17;;;16.60;99.90;;;;;;5113905;28;20032;-71
2023/05/30 08:19:55;;;;;;;0.10;0.10;;;16.70;99.90;;;;;;5113821;28;20039;-71
2023/05/30 08:22:23;;;;;;;0.20;0.20;;;16.80;99.90;;;;;;5105382;28;20479;-71
2023/05/30 08:24:50;;;;;;;1.08;0.73;;;17.20;99.90;;;;;;5113954;28;20103;-71
2023/05/30 08:27:17;;;;;;;0.77;0.47;;;17.30;99.10;;;;;;5101449;28;20034;-71
2023/05/30 08:29:44;;;;;;;6.80;2.28;;;17.10;99.60;;;;;;5113697;28;20038;-71
2023/05/30 08:32:10;;;;;;;0.20;0.20;;;17.00;99.30;;;;;;5108387;28;20024;-71
2023/05/30 08:34:36;;;;;;;0.93;0.55;;;17.20;99.80;;;;;;5113390;28;20525;-71
2023/05/30 08:37:02;;;;;;;1.08;0.98;;;17.40;98.60;;;;;;5113080;28;20031;-71
2023/05/30 08:39:28;;;;;;;0.98;0.38;;;17.40;98.80;;;;;;5096330;28;20023;-71
2023/05/30 08:41:54;;;;;;;0.10;0.10;;;17.30;99.90;;;;;;5112855;28;20480;-71
2023/05/30 08:44:20;;;;;;;0.00;0.00;;;17.40;99.90;;;;;;5113261;28;20062;-71
2023/05/30 08:46:46;;;;;;;0.63;0.63;;;17.90;99.90;;;;;;5113362;28;20080;-71
2023/05/30 08:49:20;;;;;;;0.15;0.15;;;17.90;98.90;;;;;;5112644;28;20035;-72
2023/05/30 08:51:47;;;;;;;0.20;0.20;;;18.00;98.50;;;;;;5113081;28;20102;-71
2023/05/30 08:54:19;;;;;;;4.72;0.75;;;17.80;98.50;;;;;;5113173;28;20020;-71
2023/05/30 08:57:03;;;;;;;0.68;0.52;;;18.00;98.10;;;;;;5081798;28;20092;-71
2023/05/30 08:59:31;;;;;;;0.32;0.32;;;18.00;97.30;;;;;;5106402;28;20078;-72
2023/05/30 09:01:58;;;;;;;0.52;0.52;;;17.70;98.30;;;;;;5112971;28;20047;-72
2023/05/30 09:04:25;;;;;;;1.33;0.98;;;17.80;98.40;;;;;;5112495;28;20038;-71
2023/05/30 09:06:54;;;;;;;0.57;0.47;;;17.70;98.30;;;;;;5095742;28;20030;-72
2023/05/30 09:09:21;;;;;;;0.10;0.10;;;18.00;98.10;;;;;;5112857;28;20028;-72
2023/05/30 09:11:48;;;;;;;0.17;0.17;;;17.90;98.50;;;;;;5112546;28;20028;-72
2023/05/30 09:14:14;;;;;;;1.00;0.90;;;18.30;97.80;;;;;;5112776;28;20061;-71
2023/05/30 09:16:40;;;;;;;2.00;0.93;;;18.30;98.00;;;;;;5111964;28;20062;-72
2023/05/30 09:19:07;;;;;;;1.75;0.57;;;18.50;97.40;;;;;;5097620;28;20559;-72
2023/05/30 09:21:33;;;;;;;1.02;0.93;;;18.80;97.20;;;;;;5112015;28;20163;-72
2023/05/30 09:24:06;;;;;;;0.20;0.20;;;19.00;97.00;;;;;;5112498;28;20027;-72
2023/05/30 09:26:32;;;;;;;0.43;0.38;;;19.00;96.90;;;;;;5112559;28;20050;-72
2023/05/30 09:29:09;;;;;;;0.22;0.22;;;19.20;96.40;;;;;;5082844;28;20039;-72
2023/05/30 09:31:36;;;;;;;0.25;0.25;;;19.30;96.70;;;;;;5108343;28;20043;-72
2023/05/30 09:34:02;;;;;;;1.85;0.68;;;19.30;96.40;;;;;;5111985;28;20028;-72
2023/05/30 09:36:28;;;;;;;0.10;0.10;;;19.40;96.40;;;;;;5112372;28;20027;-72
2023/05/30 09:39:03;;;;;;;1.42;0.98;;;19.70;96.10;;;;;;5112261;28;20108;-72
2023/05/30 09:41:29;;;;;;;0.10;0.10;;;19.70;96.30;;;;;;5112294;28;20068;-72
2023/05/30 09:43:57;;;;;;;0.20;0.20;;;20.10;96.60;;;;;;5112429;28;20122;-72
2023/05/30 09:46:24;;;;;;;0.10;0.10;;;20.00;96.10;;;;;;5112427;28;20035;-72
2023/05/30 09:48:51;;;;;;;0.40;0.40;;;20.20;95.40;;;;;;5111755;28;20038;-73
2023/05/30 09:51:18;;;;;;;3.30;3.10;;;20.20;95.30;;;;;;5100442;28;20159;-71
2023/05/30 09:54:01;;;;;;;0.00;0.00;;;20.30;95.30;;;;;;5112377;28;20028;-73
2023/05/30 09:56:38;;;;;;;0.10;0.10;;;20.30;95.10;;;;;;5112030;28;20495;-73
2023/05/30 09:59:13;;;;;;;0.75;0.75;;;20.00;95.80;;;;;;5111975;28;20050;-73
2023/05/30 10:01:42;;;;;;;0.30;0.30;;;20.10;95.70;;;;;;5111722;28;20114;-72
2023/05/30 10:04:16;;;;;;;0.20;0.20;;;20.50;95.20;;;;;;5111957;28;20039;-73
2023/05/30 10:06:51;;;;;;;1.73;1.63;;;20.20;94.80;;;;;;5093881;28;20024;-73
2023/05/30 10:09:20;;;;;;;0.28;0.28;;;20.30;95.10;;;;;;5112176;28;20035;-73
2023/05/30 10:11:46;;;;;;;1.35;1.05;;;20.20;95.20;;;;;;5112312;28;20024;-73
2023/05/30 10:14:13;;;;;;;0.57;0.55;;;20.10;94.60;;;;;;5099413;28;20036;-73
2023/05/30 10:17:04;;;;;;;0.52;0.30;;;20.20;94.60;;;;;;5111551;28;20024;-73
2023/05/30 10:19:40;;;;;;;0.87;0.33;;;20.80;94.80;;;;;;5106939;28;20491;-73
2023/05/30 10:22:07;;;;;;;0.35;0.32;;;21.20;93.80;;;;;;5111826;28;20039;-73
2023/05/30 10:24:33;;;;;;;1.60;1.40;;;21.00;94.20;;;;;;5111766;28;20475;-73
2023/05/30 10:27:03;;;;;;;0.28;0.28;;;20.90;94.10;;;;;;5111698;28;20125;-73
2023/05/30 10:29:35;;;;;;;0.57;0.57;;;21.20;93.80;;;;;;5112067;28;20080;-73
2023/05/30 10:32:03;;;;;;;6.68;0.22;;;21.30;93.50;;;;;;5111571;28;20103;-73
2023/05/30 10:34:47;;;;;;;0.45;0.40;;;21.40;93.10;;;;;;5114646;28;20157;-74
2023/05/30 10:37:13;;;;;;;1.55;0.22;;;21.60;93.10;;;;;;5113464;28;20042;-73
2023/05/30 10:40:20;;;;;;;3.08;0.57;;;21.40;93.10;;;;;;5115850;28;20034;-73
2023/05/30 10:43:07;;;;;;;0.00;0.00;;;21.70;93.00;;;;;;5081945;27;20051;-73
2023/05/30 10:46:04;;;;;;;7.38;1.83;;;21.70;92.70;;;;;;5104296;28;20027;-72
2023/05/30 10:48:48;;;;;;;2.60;0.98;;;21.10;92.90;;;;;;5112984;28;20062;-72
2023/05/30 10:51:14;;;;;;;1.38;0.80;;;21.30;93.60;;;;;;5115555;28;20027;-72
2023/05/30 10:53:43;;;;;;;0.93;0.35;;;21.80;92.60;;;;;;5115238;28;20472;-72
2023/05/30 10:56:31;;;;;;;0.63;0.55;;;22.10;92.60;;;;;;5115977;28;20379;-72
2023/05/30 10:58:57;;;;;;;3.17;1.65;;;22.10;92.90;;;;;;5114829;28;20040;-72
2023/05/30 11:01:27;;;;;;;0.10;0.10;;;21.70;91.90;;;;;;5109755;27;20046;-73
2023/05/30 11:03:57;;;;;;;0.00;0.00;;;22.00;92.60;;;;;;5115234;28;20088;-72
2023/05/30 11:06:27;;;;;;;0.38;0.38;;;22.40;92.50;;;;;;5114919;28;20030;-72
2023/05/30 11:09:03;;;;;;;0.60;0.60;;;22.60;92.20;;;;;;5100096;28;20114;-72
2023/05/30 11:11:52;;;;;;;0.30;0.10;;;23.00;91.90;;;;;;5115158;28;20019;-72
2023/05/30 11:14:30;;;;;;;0.20;0.20;;;23.10;91.20;;;;;;5114858;28;20484;-72
2023/05/30 11:16:59;;;;;;;0.80;0.30;;;22.80;91.90;;;;;;5113581;28;20401;-72
2023/05/30 11:19:25;;;;;;;2.03;1.52;;;22.30;92.20;;;;;;5114990;28;20036;-72
2023/05/30 11:22:01;;;;;;;1.67;0.95;;;22.50;91.30;;;;;;5098789;28;20024;-72
2023/05/30 11:24:29;;;;;;;0.40;0.40;;;22.40;91.80;;;;;;5114814;28;20116;-72
2023/05/30 11:27:06;;;;;;;0.25;0.17;;;21.90;91.70;;;;;;5103905;28;20483;-71
2023/05/30 11:29:32;;;;;;;0.65;0.63;;;22.00;92.10;;;;;;5106855;28;20606;-71
2023/05/30 11:32:04;;;;;;;0.10;0.10;;;22.10;92.20;;;;;;5113945;28;20024;-72
2023/05/30 11:34:29;;;;;;;0.10;0.10;;;22.60;91.40;;;;;;5095627;28;21114;-72
2023/05/30 11:36:56;;;;;;;0.88;0.70;;;22.60;91.40;;;;;;5114435;28;20087;-71
2023/05/30 11:39:22;;;;;;;0.30;0.30;;;22.60;91.10;;;;;;5114465;28;20040;-72
2023/05/30 11:41:48;;;;;;;0.15;0.15;;;22.50;92.10;;;;;;5088436;28;20028;-72
2023/05/30 11:44:18;;;;;;;0.03;0.03;;;22.90;91.60;;;;;;5109656;28;20043;-72
2023/05/30 11:46:43;;;;;;;1.50;1.40;;;23.20;91.60;;;;;;5113805;28;20015;-72
2023/05/30 11:49:09;;;;;;;0.10;0.10;;;23.20;90.10;;;;;;5114385;28;20110;-71
2023/05/30 11:51:38;;;;;;;0.10;0.10;;;23.40;90.70;;;;;;5096969;28;20053;-71
2023/05/30 11:54:07;;;;;;;1.15;1.08;;;23.80;91.00;;;;;;5114499;28;20008;-72
2023/05/30 11:56:33;;;;;;;0.80;0.73;;;24.00;90.70;;;;;;5113934;28;20391;-71
2023/05/30 11:58:59;;;;;;;0.68;0.35;;;24.20;89.80;;;;;;5114036;28;20114;-71
2023/05/30 12:01:27;;;;;;;3.05;1.33;;;24.30;90.10;;;;;;5113526;28;20035;-71
2023/05/30 12:03:56;;;;;;;0.28;0.28;;;24.40;90.30;;;;;;5106926;28;20447;-72
2023/05/30 12:06:22;;;;;;;4.32;0.75;;;24.20;89.80;;;;;;5114037;28;20084;-71
2023/05/30 12:08:48;;;;;;;0.00;0.00;;;24.00;88.70;;;;;;5114165;28;20051;-72
2023/05/30 12:11:15;;;;;;;2.70;0.88;;;24.10;89.50;;;;;;5113890;28;20809;-72
2023/05/30 12:13:42;;;;;;;2.10;0.25;;;23.70;90.10;;;;;;5099917;28;20028;-71
2023/05/30 12:16:12;;;;;;;1.70;0.50;;;23.90;89.40;;;;;;5114085;28;20437;-72
2023/05/30 12:18:39;;;;;;;0.22;0.22;;;24.10;90.00;;;;;;5113738;28;20039;-71
2023/05/30 12:21:06;;;;;;;5.72;0.73;;;24.30;90.20;;;;;;5113782;28;20376;-71
2023/05/30 12:23:32;;;;;;;0.05;0.05;;;24.70;88.90;;;;;;5113670;28;20024;-71
2023/05/30 12:25:59;;;;;;;1.60;1.40;;;24.60;88.50;;;;;;5113739;28;20384;-72
2023/05/30 12:28:24;;;;;;;0.17;0.17;;;24.80;87.40;;;;;;5113302;28;20072;-72
2023/05/30 12:30:51;;;;;;;9.10;1.65;;;25.20;87.00;;;;;;5102741;28;20462;-72
2023/05/30 12:33:18;;;;;;;0.50;0.43;;;25.00;86.40;;;;;;5112671;28;20024;-72
2023/05/30 12:35:45;;;;;;;1.42;1.33;;;25.30;87.10;;;;;;5113299;28;20373;-72
2023/05/30 12:38:15;;;;;;;0.30;0.30;;;25.30;87.10;;;;;;5113378;28;20035;-72
2023/05/30 12:40:49;;;;;;;0.30;0.30;;;25.20;87.00;;;;;;5113244;28;20478;-72
2023/05/30 12:43:16;;;;;;;0.10;0.10;;;25.50;87.40;;;;;;5113005;28;20070;-72
2023/05/30 12:45:45;;;;;;;1.00;0.77;;;25.50;86.00;;;;;;5113340;28;20466;-71
2023/05/30 12:48:12;;;;;;;11.70;1.45;;;25.20;86.20;;;;;;5102040;28;20483;-72
2023/05/30 12:50:37;;;;;;;2.05;0.63;;;25.40;87.10;;;;;;5095582;28;20031;-72